createdAt,value
2019-05-15T00:02:18.414Z,99.90
2019-05-15T00:04:49.193Z,99.90
2019-05-15T00:07:18.902Z,99.90
2019-05-15T00:09:49.176Z,99.90
2019-05-15T00:12:20.378Z,99.90
2019-05-15T00:14:49.975Z,99.90
2019-05-15T00:17:19.478Z,99.90
2019-05-15T00:19:48.874Z,99.60
2019-05-15T00:22:18.515Z,99.20
2019-05-15T00:24:48.806Z,98.90
2019-05-15T00:27:20.284Z,99.00
2019-05-15T00:29:49.881Z,98.70
2019-05-15T00:32:19.279Z,98.80
2019-05-15T00:34:49.617Z,98.90
2019-05-15T00:37:19.361Z,98.50
2019-05-15T00:39:49.099Z,98.80
2019-05-15T00:42:18.996Z,98.30
2019-05-15T00:44:49.310Z,98.40
2019-05-15T00:47:18.895Z,97.90
2019-05-15T00:49:48.822Z,97.60
2019-05-15T00:52:18.544Z,97.60
2019-05-15T00:54:48.500Z,97.60
2019-05-15T00:57:19.274Z,97.50
2019-05-15T00:59:50.563Z,97.60
2019-05-15T01:02:19.947Z,97.50
2019-05-15T01:04:49.375Z,97.80
2019-05-15T01:07:18.927Z,97.60
2019-05-15T01:09:48.815Z,97.90
2019-05-15T01:12:18.621Z,98.00
2019-05-15T01:14:49.101Z,98.20
2019-05-15T01:17:18.802Z,98.30
2019-05-15T01:19:49.874Z,98.50
2019-05-15T01:22:19.589Z,98.70
2019-05-15T01:24:49.385Z,99.10
2019-05-15T01:27:19.046Z,99.20
2019-05-15T01:29:49.387Z,99.30
2019-05-15T01:32:30.907Z,98.90
2019-05-15T01:35:00.895Z,99.30
2019-05-15T01:37:31.071Z,99.30
2019-05-15T01:40:00.821Z,99.40
2019-05-15T01:42:30.669Z,98.80
2019-05-15T01:45:00.162Z,99.10
2019-05-15T01:47:29.509Z,98.90
2019-05-15T01:49:59.305Z,98.50
2019-05-15T01:52:28.687Z,98.50
2019-05-15T01:54:58.383Z,98.20
2019-05-15T01:57:28.741Z,98.40
2019-05-15T02:00:00.880Z,98.10
2019-05-15T02:02:29.974Z,98.30
2019-05-15T02:04:59.809Z,98.30
2019-05-15T02:07:30.614Z,98.30
2019-05-15T02:10:00.158Z,99.10
2019-05-15T02:12:29.488Z,98.90
2019-05-15T02:14:59.000Z,99.40
2019-05-15T02:17:28.403Z,99.60
2019-05-15T02:19:58.754Z,99.90
2019-05-15T02:22:31.079Z,99.90
2019-05-15T02:25:00.799Z,99.90
2019-05-15T02:27:30.347Z,99.90
2019-05-15T02:30:15.989Z,99.90
2019-05-15T02:32:32.700Z,99.90
2019-05-15T02:35:02.209Z,99.90
2019-05-15T02:37:31.534Z,99.90
2019-05-15T02:40:02.822Z,99.90
2019-05-15T02:42:32.205Z,99.90
2019-05-15T02:45:02.541Z,99.90
2019-05-15T02:47:32.006Z,99.90
2019-05-15T02:50:01.854Z,99.90
2019-05-15T02:52:31.462Z,99.90
2019-05-15T02:55:01.210Z,99.90
2019-05-15T02:57:30.683Z,99.90
2019-05-15T03:00:00.125Z,99.90
2019-05-15T03:02:29.810Z,99.90
2019-05-15T03:04:59.655Z,99.90
2019-05-15T03:07:29.710Z,99.90
2019-05-15T03:10:00.004Z,99.90
2019-05-15T03:12:29.747Z,99.90
2019-05-15T03:14:59.993Z,99.90
2019-05-15T03:17:29.951Z,99.90
2019-05-15T03:19:59.528Z,99.90
2019-05-15T03:22:29.530Z,99.90
2019-05-15T03:24:59.382Z,99.90
2019-05-15T03:27:30.397Z,99.90
2019-05-15T03:30:00.103Z,99.90
2019-05-15T03:32:41.098Z,99.90
2019-05-15T03:35:05.481Z,99.90
2019-05-15T03:37:35.056Z,99.90
2019-05-15T03:40:05.573Z,99.90
2019-05-15T03:42:35.206Z,99.90
2019-05-15T03:45:05.160Z,99.90
2019-05-15T03:47:34.708Z,99.90
2019-05-15T03:50:04.375Z,99.90
2019-05-15T03:52:34.087Z,99.90
2019-05-15T03:55:03.819Z,99.90
2019-05-15T03:57:33.388Z,99.90
2019-05-15T04:00:03.023Z,99.90
2019-05-15T04:02:32.877Z,99.90
2019-05-15T04:05:02.443Z,99.90
2019-05-15T04:07:31.854Z,99.90
2019-05-15T04:10:01.209Z,99.90
2019-05-15T04:12:30.764Z,99.90
2019-05-15T04:15:00.539Z,99.90
2019-05-15T04:17:29.928Z,99.90
2019-05-15T04:19:59.642Z,99.90
2019-05-15T04:22:29.378Z,99.90
2019-05-15T04:25:00.122Z,99.90
2019-05-15T04:27:30.523Z,99.90
2019-05-15T04:30:00.160Z,99.90
2019-05-15T04:32:29.715Z,99.90
2019-05-15T04:34:59.522Z,99.90
2019-05-15T04:37:29.877Z,99.90
2019-05-15T04:40:00.243Z,99.90
2019-05-15T04:42:30.097Z,99.90
2019-05-15T04:45:00.156Z,99.90
2019-05-15T04:47:30.350Z,99.90
2019-05-15T04:50:00.047Z,99.90
2019-05-15T04:52:30.376Z,99.90
2019-05-15T04:55:00.511Z,99.90
2019-05-15T04:57:33.751Z,99.90
2019-05-15T05:00:01.135Z,99.90
2019-05-15T05:02:32.275Z,99.90
2019-05-15T05:05:05.018Z,99.90
2019-05-15T05:07:38.682Z,99.90
2019-05-15T05:10:09.701Z,99.90
2019-05-15T05:12:41.957Z,99.90
2019-05-15T05:15:10.212Z,99.90
2019-05-15T05:17:40.596Z,99.60
2019-05-15T05:20:10.681Z,99.70
2019-05-15T05:22:40.022Z,99.40
2019-05-15T05:25:10.543Z,99.30
2019-05-15T05:27:39.941Z,99.10
2019-05-15T05:30:09.910Z,98.90
2019-05-15T05:32:41.276Z,99.00
2019-05-15T05:35:11.379Z,99.30
2019-05-15T05:37:40.731Z,98.60
2019-05-15T05:40:10.715Z,98.90
2019-05-15T05:42:40.321Z,97.90
2019-05-15T05:45:10.653Z,96.80
2019-05-15T05:47:40.003Z,96.50
2019-05-15T05:50:09.765Z,95.80
2019-05-15T05:52:39.348Z,94.90
2019-05-15T05:55:09.724Z,94.00
2019-05-15T05:57:39.108Z,94.30
2019-05-15T06:00:09.695Z,92.60
2019-05-15T06:02:48.100Z,92.20
2019-05-15T06:05:12.325Z,90.90
2019-05-15T06:07:41.763Z,90.80
2019-05-15T06:10:11.183Z,90.00
2019-05-15T06:12:41.498Z,90.30
2019-05-15T06:15:10.997Z,87.80
2019-05-15T06:17:40.368Z,87.50
2019-05-15T06:20:10.106Z,88.50
2019-05-15T06:22:40.473Z,85.80
2019-05-15T06:25:11.686Z,82.30
2019-05-15T06:27:41.291Z,82.40
2019-05-15T06:30:19.497Z,81.30
2019-05-15T06:32:42.572Z,83.00
2019-05-15T06:35:12.739Z,82.50
2019-05-15T06:37:42.856Z,81.80
2019-05-15T06:40:12.580Z,99.90
2019-05-15T06:42:42.174Z,99.90
2019-05-15T06:45:12.031Z,98.10
2019-05-15T06:47:41.545Z,93.00
2019-05-15T06:50:12.960Z,89.00
2019-05-15T06:52:42.403Z,78.20
2019-05-15T06:55:11.880Z,75.10
2019-05-15T06:57:41.387Z,75.30
2019-05-15T07:00:11.461Z,73.10
2019-05-15T07:02:40.985Z,69.00
2019-05-15T07:05:11.314Z,60.70
2019-05-15T07:07:41.098Z,53.80
2019-05-15T07:10:10.736Z,53.20
2019-05-15T07:12:40.143Z,53.70
2019-05-15T07:15:10.326Z,54.50
2019-05-15T07:17:39.672Z,53.10
2019-05-15T07:20:09.735Z,53.80
2019-05-15T07:22:39.483Z,55.20
2019-05-15T07:25:10.084Z,54.50
2019-05-15T07:27:39.908Z,52.60
2019-05-15T07:30:12.129Z,52.00
2019-05-15T07:32:41.828Z,52.30
2019-05-15T07:35:11.502Z,51.80
2019-05-15T07:37:40.854Z,51.40
2019-05-15T07:40:11.302Z,51.80
2019-05-15T07:42:40.775Z,51.60
2019-05-15T07:45:11.862Z,51.50
2019-05-15T07:47:41.210Z,52.10
2019-05-15T07:50:11.468Z,51.20
2019-05-15T07:52:41.335Z,51.00
2019-05-15T07:55:11.621Z,50.90
2019-05-15T07:57:40.989Z,50.80
2019-05-15T08:00:11.595Z,51.70
2019-05-15T08:02:41.055Z,52.50
2019-05-15T08:05:11.261Z,53.80
2019-05-15T08:07:40.932Z,52.70
2019-05-15T08:10:11.086Z,52.00
2019-05-15T08:12:40.548Z,52.60
2019-05-15T08:15:11.851Z,51.20
2019-05-15T08:18:00.082Z,50.80
2019-05-15T08:20:12.778Z,51.10
2019-05-15T08:22:45.528Z,50.00
2019-05-15T08:25:28.288Z,51.20
2019-05-15T08:27:48.499Z,51.80
2019-05-15T08:30:18.384Z,51.30
2019-05-15T08:32:51.308Z,52.00
2019-05-15T08:35:19.326Z,51.50
2019-05-15T08:37:49.985Z,51.00
2019-05-15T08:40:20.235Z,50.80
2019-05-15T08:42:57.382Z,52.30
2019-05-15T08:45:22.676Z,52.50
2019-05-15T08:47:52.194Z,51.50
2019-05-15T08:50:21.733Z,51.10
2019-05-15T08:52:51.099Z,51.60
2019-05-15T08:55:20.789Z,51.30
2019-05-15T08:57:55.414Z,51.90
2019-05-15T09:00:22.278Z,52.60
2019-05-15T09:02:51.753Z,52.40
2019-05-15T09:05:21.772Z,51.80
2019-05-15T09:07:51.112Z,51.90
2019-05-15T09:10:20.722Z,52.40
2019-05-15T09:12:50.432Z,53.60
2019-05-15T09:15:20.244Z,52.00
2019-05-15T09:17:49.987Z,50.10
2019-05-15T09:20:20.000Z,50.50
2019-05-15T09:22:49.446Z,51.00
2019-05-15T09:25:19.778Z,51.70
2019-05-15T09:27:49.196Z,51.40
2019-05-15T09:30:18.782Z,52.50
2019-05-15T09:32:48.683Z,52.50
2019-05-15T09:35:20.989Z,51.20
2019-05-15T09:37:50.763Z,51.20
2019-05-15T09:40:20.244Z,50.20
2019-05-15T09:42:49.663Z,50.50
2019-05-15T09:45:19.327Z,50.50
2019-05-15T09:47:49.003Z,50.30
2019-05-15T09:50:19.443Z,50.10
2019-05-15T09:52:50.267Z,50.20
2019-05-15T09:55:20.762Z,50.10
2019-05-15T09:57:50.310Z,50.40
2019-05-15T10:00:22.301Z,49.60
2019-05-15T10:02:51.824Z,50.30
2019-05-15T10:05:21.512Z,50.20
2019-05-15T10:07:51.119Z,50.00
2019-05-15T10:10:20.648Z,49.90
2019-05-15T10:12:50.130Z,50.40
2019-05-15T10:15:19.631Z,51.40
2019-05-15T10:17:51.239Z,51.90
2019-05-15T10:20:20.280Z,52.90
2019-05-15T10:22:49.808Z,50.90
2019-05-15T10:25:19.299Z,51.30
2019-05-15T10:27:54.156Z,50.60
2019-05-15T10:30:24.142Z,50.40
2019-05-15T10:32:53.756Z,51.20
2019-05-15T10:35:28.217Z,51.70
2019-05-15T10:37:54.607Z,51.40
2019-05-15T10:40:24.015Z,52.20
2019-05-15T10:42:53.589Z,51.30
2019-05-15T10:45:23.228Z,51.50
2019-05-15T10:47:52.863Z,51.50
2019-05-15T10:50:22.678Z,51.90
2019-05-15T10:52:52.193Z,51.20
2019-05-15T10:55:21.862Z,51.00
2019-05-15T10:57:51.263Z,50.40
2019-05-15T11:00:21.427Z,51.60
2019-05-15T11:02:50.997Z,51.50
2019-05-15T11:05:20.849Z,52.00
2019-05-15T11:07:50.421Z,50.90
2019-05-15T11:10:20.190Z,49.50
2019-05-15T11:12:49.508Z,49.00
2019-05-15T11:15:19.500Z,49.70
2019-05-15T11:17:50.892Z,49.00
2019-05-15T11:20:20.498Z,49.20
2019-05-15T11:22:50.263Z,49.60
2019-05-15T11:25:19.839Z,49.70
2019-05-15T11:27:49.207Z,50.40
2019-05-15T11:30:19.448Z,49.60
2019-05-15T11:32:48.943Z,49.10
2019-05-15T11:35:19.069Z,48.20
2019-05-15T11:37:56.023Z,48.30
2019-05-15T11:40:20.031Z,49.30
2019-05-15T11:42:49.438Z,49.10
2019-05-15T11:45:20.071Z,50.20
2019-05-15T11:48:09.018Z,49.40
2019-05-15T11:50:40.398Z,50.90
2019-05-15T11:53:09.991Z,51.10
2019-05-15T11:55:39.419Z,48.90
2019-05-15T11:58:10.667Z,49.10
2019-05-15T12:00:40.048Z,48.80
2019-05-15T12:03:09.976Z,49.30
2019-05-15T12:05:39.367Z,49.70
2019-05-15T12:08:12.364Z,50.10
2019-05-15T12:10:44.614Z,52.60
2019-05-15T12:13:14.007Z,53.10
2019-05-15T12:15:43.562Z,51.10
2019-05-15T12:18:13.051Z,50.90
2019-05-15T12:20:42.734Z,48.50
2019-05-15T12:23:12.275Z,49.20
2019-05-15T12:25:41.753Z,50.60
2019-05-15T12:28:11.233Z,51.10
2019-05-15T12:30:42.438Z,50.70
2019-05-15T12:33:13.356Z,50.00
2019-05-15T12:35:42.753Z,48.30
2019-05-15T12:38:12.193Z,48.60
2019-05-15T13:00:52.356Z,48.30
2019-05-15T13:03:21.978Z,48.70
2019-05-15T13:05:51.587Z,47.80
2019-05-15T13:08:21.222Z,48.60
2019-05-15T13:10:50.670Z,48.30
2019-05-15T13:13:20.087Z,46.00
2019-05-15T13:15:49.846Z,47.80
2019-05-15T13:18:19.342Z,48.30
2019-05-15T13:20:49.158Z,49.30
2019-05-15T13:23:20.685Z,48.40
2019-05-15T13:25:50.160Z,50.30
2019-05-15T13:28:19.784Z,51.20
2019-05-15T13:30:49.507Z,48.10
2019-05-15T13:33:19.510Z,48.80
2019-05-15T13:35:48.919Z,47.60
2019-05-15T13:38:18.290Z,48.40
2019-05-15T13:40:48.174Z,46.70
2019-05-15T13:43:18.586Z,47.60
2019-05-15T13:45:49.058Z,47.80
2019-05-15T13:48:20.643Z,47.70
2019-05-15T13:50:50.061Z,47.70
2019-05-15T13:53:19.469Z,46.20
2019-05-15T13:55:48.899Z,47.20
2019-05-15T13:58:18.349Z,46.70
2019-05-15T14:00:50.057Z,47.40
2019-05-15T14:03:19.683Z,47.10
2019-05-15T14:05:49.987Z,48.10
2019-05-15T14:08:19.687Z,47.40
2019-05-15T14:10:49.344Z,47.60
2019-05-15T14:13:19.687Z,48.40
2019-05-15T14:15:49.711Z,47.10
2019-05-15T14:18:19.821Z,47.30
2019-05-15T14:20:51.413Z,47.20
2019-05-15T14:23:21.939Z,46.70
2019-05-15T14:25:51.360Z,46.20
2019-05-15T14:28:21.221Z,47.00
2019-05-15T14:30:51.024Z,46.30
2019-05-15T14:33:20.469Z,46.70
2019-05-15T14:35:49.881Z,46.80
2019-05-15T14:38:19.336Z,47.00
2019-05-15T14:40:48.686Z,46.80
2019-05-15T14:43:18.492Z,47.20
2019-05-15T14:45:48.262Z,47.10
2019-05-15T14:48:19.093Z,46.60
2019-05-15T14:50:48.774Z,46.40
2019-05-15T14:53:18.741Z,46.10
2019-05-15T14:55:49.361Z,46.10
2019-05-15T14:58:19.773Z,45.50
2019-05-15T15:00:50.274Z,45.80
2019-05-15T15:03:20.082Z,44.60
2019-05-15T15:05:49.627Z,44.50
2019-05-15T15:08:24.858Z,45.10
2019-05-15T15:10:50.525Z,45.30
2019-05-15T15:13:20.249Z,44.20
2019-05-15T15:15:50.063Z,44.30
2019-05-15T15:18:19.564Z,43.90
2019-05-15T15:20:48.986Z,44.30
2019-05-15T15:23:18.472Z,45.30
2019-05-15T15:25:48.490Z,45.30
2019-05-15T15:28:18.858Z,45.10
2019-05-15T15:30:48.774Z,45.60
2019-05-15T15:33:18.968Z,45.70
2019-05-15T15:35:48.712Z,45.90
2019-05-15T15:38:26.817Z,47.80
2019-05-15T15:40:49.670Z,46.60
2019-05-15T15:43:19.728Z,45.10
2019-05-15T15:45:49.357Z,45.90
2019-05-15T15:48:19.381Z,46.00
2019-05-15T15:50:49.101Z,46.20
2019-05-15T15:53:19.224Z,44.60
2019-05-15T15:55:49.006Z,45.80
2019-05-15T15:58:19.957Z,44.60
2019-05-15T16:00:50.114Z,44.00
2019-05-15T16:03:19.645Z,43.60
2019-05-15T16:05:49.178Z,42.90
2019-05-15T16:08:19.110Z,43.40
2019-05-15T16:10:48.950Z,43.60
2019-05-15T16:13:24.847Z,43.70
2019-05-15T16:15:57.779Z,43.70
2019-05-15T16:18:28.912Z,43.50
2019-05-15T16:20:58.331Z,43.30
2019-05-15T16:23:28.426Z,43.20
2019-05-15T16:26:01.139Z,43.10
2019-05-15T16:28:31.394Z,43.60
2019-05-15T16:31:00.981Z,43.90
2019-05-15T16:33:30.515Z,42.90
2019-05-15T16:36:00.137Z,44.30
2019-05-15T16:38:29.934Z,44.10
2019-05-15T16:40:59.950Z,44.90
2019-05-15T16:43:29.517Z,44.90
2019-05-15T16:45:59.044Z,44.90
2019-05-15T16:48:29.465Z,44.80
2019-05-15T16:50:59.241Z,44.70
2019-05-15T16:53:30.625Z,43.50
2019-05-15T16:56:00.315Z,43.20
2019-05-15T16:58:29.923Z,43.90
2019-05-15T17:00:59.470Z,44.10
2019-05-15T17:03:29.151Z,44.40
2019-05-15T17:05:59.036Z,44.90
2019-05-15T17:08:32.039Z,45.70
2019-05-15T17:11:00.302Z,46.00
2019-05-15T17:13:29.940Z,45.80
2019-05-15T17:16:01.306Z,45.70
2019-05-15T17:18:30.862Z,46.00
2019-05-15T17:21:00.492Z,46.40
2019-05-15T17:23:30.084Z,46.30
2019-05-15T17:26:01.258Z,46.40
2019-05-15T17:28:30.876Z,46.60
2019-05-15T17:31:00.405Z,46.00
2019-05-15T17:33:29.914Z,45.50
2019-05-15T17:35:59.662Z,44.70
2019-05-15T17:38:30.041Z,43.40
2019-05-15T17:40:59.636Z,43.70
2019-05-15T17:43:29.336Z,43.90
2019-05-15T17:45:59.173Z,45.50
2019-05-15T17:48:29.106Z,45.70
2019-05-15T17:50:59.463Z,46.00
2019-05-15T17:53:31.537Z,45.80
2019-05-15T17:56:01.247Z,45.30
2019-05-15T17:58:31.175Z,44.60
2019-05-15T18:01:02.352Z,44.20
2019-05-15T18:03:32.054Z,43.40
2019-05-15T18:06:01.718Z,43.20
2019-05-15T18:08:31.839Z,43.10
2019-05-15T18:11:01.922Z,42.90
2019-05-15T18:13:31.613Z,42.10
2019-05-15T18:16:03.804Z,41.80
2019-05-15T18:18:32.396Z,42.00
2019-05-15T18:21:02.361Z,41.90
2019-05-15T18:23:31.891Z,41.30
2019-05-15T18:26:01.879Z,42.00
2019-05-15T18:28:31.783Z,42.50
2019-05-15T18:31:02.854Z,43.10
2019-05-15T18:33:32.508Z,43.60
2019-05-15T18:36:01.976Z,44.20
2019-05-15T18:38:31.667Z,44.80
2019-05-15T18:41:03.768Z,45.00
2019-05-15T18:43:33.037Z,45.00
2019-05-15T18:46:02.645Z,45.70
2019-05-15T18:48:32.192Z,46.20
2019-05-15T18:51:01.833Z,46.60
2019-05-15T18:53:31.726Z,46.90
2019-05-15T18:56:01.335Z,47.30
2019-05-15T18:58:30.974Z,47.60
2019-05-15T19:01:00.924Z,47.90
2019-05-15T19:03:30.515Z,48.50
2019-05-15T19:06:00.082Z,48.80
2019-05-15T19:08:31.304Z,49.10
2019-05-15T19:11:01.202Z,48.60
2019-05-15T19:13:30.629Z,48.90
2019-05-15T19:16:00.191Z,49.10
2019-05-15T19:18:29.849Z,49.30
2019-05-15T19:20:59.330Z,49.60
2019-05-15T19:23:28.923Z,49.60
2019-05-15T19:25:58.677Z,50.10
2019-05-15T19:28:28.723Z,50.20
2019-05-15T19:30:58.934Z,50.00
2019-05-15T19:33:37.044Z,50.50
2019-05-15T19:36:02.223Z,50.70
2019-05-15T19:38:31.973Z,50.50
2019-05-15T19:41:06.351Z,50.50
2019-05-15T19:43:33.164Z,50.90
2019-05-15T19:46:03.624Z,50.50
2019-05-15T19:48:33.140Z,50.40
2019-05-15T19:51:02.629Z,51.10
2019-05-15T19:53:32.514Z,51.00
2019-05-15T19:56:02.151Z,52.40
2019-05-15T19:58:31.941Z,51.90
2019-05-15T20:01:01.599Z,51.70
2019-05-15T20:03:31.301Z,51.30
2019-05-15T20:06:01.758Z,50.90
2019-05-15T20:08:31.458Z,51.20
2019-05-15T20:11:01.135Z,51.30
2019-05-15T20:13:30.742Z,51.50
2019-05-15T20:16:00.164Z,51.80
2019-05-15T20:18:29.896Z,52.10
2019-05-15T20:20:59.648Z,52.40
2019-05-15T20:23:29.249Z,52.70
2019-05-15T20:25:59.450Z,52.70
2019-05-15T20:28:29.123Z,53.00
2019-05-15T20:30:59.028Z,51.90
2019-05-15T20:33:29.527Z,52.00
2019-05-15T20:35:59.071Z,52.10
2019-05-15T20:38:29.133Z,52.10
2019-05-15T20:40:59.682Z,52.20
2019-05-15T20:43:29.773Z,52.20
2019-05-15T20:45:59.895Z,52.00
2019-05-15T20:48:30.976Z,52.00
2019-05-15T20:51:02.967Z,52.00
2019-05-15T20:53:32.740Z,51.90
2019-05-15T20:56:02.401Z,51.80
2019-05-15T20:58:33.519Z,51.50
2019-05-15T21:01:03.415Z,51.30
2019-05-15T21:03:32.850Z,51.70
2019-05-15T21:06:02.599Z,52.00
2019-05-15T21:08:32.123Z,52.00
2019-05-15T21:11:03.234Z,52.40
2019-05-15T21:13:32.944Z,52.90
2019-05-15T21:16:04.079Z,52.40
2019-05-15T21:18:33.650Z,52.60
2019-05-15T21:21:03.151Z,52.50
2019-05-15T21:23:32.698Z,52.10
2019-05-15T21:26:02.280Z,52.00
2019-05-15T21:28:32.098Z,52.10
2019-05-15T21:31:01.675Z,52.40
2019-05-15T21:33:31.516Z,52.70
2019-05-15T21:36:00.824Z,52.40
2019-05-15T21:38:30.532Z,52.30
2019-05-15T21:41:00.172Z,52.20
2019-05-15T21:43:33.012Z,52.40
2019-05-15T21:46:02.603Z,52.50
2019-05-15T21:48:32.127Z,52.40
2019-05-15T21:51:01.773Z,52.70
2019-05-15T21:53:38.861Z,52.60
2019-05-15T21:56:08.564Z,52.70
2019-05-15T21:58:38.257Z,52.60
2019-05-15T22:01:10.526Z,52.20
2019-05-15T22:03:40.291Z,52.40
2019-05-15T22:06:09.989Z,52.50
2019-05-15T22:08:39.428Z,51.10
2019-05-15T22:11:09.086Z,50.50
2019-05-15T22:13:39.498Z,50.80
2019-05-15T22:16:09.606Z,51.00
2019-05-15T22:18:38.931Z,50.70
2019-05-15T22:21:08.400Z,49.90
2019-05-15T22:23:38.436Z,49.60
2019-05-15T22:26:08.159Z,50.50
2019-05-15T22:28:38.656Z,50.60
2019-05-15T22:31:08.839Z,50.20
2019-05-15T22:33:38.604Z,48.80
2019-05-15T22:36:08.622Z,48.40
2019-05-15T22:38:38.313Z,48.40
2019-05-15T22:41:10.378Z,48.40
2019-05-15T22:43:39.348Z,48.50
2019-05-15T22:46:10.949Z,48.40
2019-05-15T22:48:39.867Z,48.40
2019-05-15T22:51:09.236Z,48.30
2019-05-15T22:53:38.663Z,48.50
2019-05-15T22:56:09.319Z,48.30
2019-05-15T22:58:39.010Z,48.30
2019-05-15T23:01:09.332Z,48.10
2019-05-15T23:03:39.596Z,48.60
2019-05-15T23:06:09.936Z,48.80
2019-05-15T23:08:39.418Z,48.20
2019-05-15T23:11:09.676Z,48.30
2019-05-15T23:13:39.726Z,47.60
2019-05-15T23:16:28.342Z,47.50
2019-05-15T23:18:58.805Z,47.80
2019-05-15T23:21:28.787Z,47.20
2019-05-15T23:23:58.609Z,46.90
2019-05-15T23:26:28.382Z,46.80
2019-05-15T23:28:58.562Z,46.60
2019-05-15T23:31:28.335Z,46.70
2019-05-15T23:33:57.883Z,46.80
2019-05-15T23:36:28.480Z,47.00
2019-05-15T23:38:58.481Z,46.20
2019-05-15T23:41:28.192Z,46.60
2019-05-15T23:43:57.702Z,46.60
2019-05-15T23:46:28.796Z,46.80
2019-05-15T23:48:58.843Z,47.00
2019-05-15T23:51:28.369Z,46.60
2019-05-15T23:54:00.100Z,46.90
2019-05-15T23:56:29.446Z,47.10
2019-05-15T23:58:58.860Z,47.10
